createdAt,value
2022-09-07T00:00:21.866Z,9.29
2022-09-07T00:02:54.597Z,9.30
2022-09-07T00:05:28.436Z,9.29
2022-09-07T00:08:02.773Z,9.28
2022-09-07T00:10:35.288Z,9.26
2022-09-07T00:13:08.936Z,9.26
2022-09-07T00:15:41.620Z,9.26
2022-09-07T00:18:14.160Z,9.24
2022-09-07T00:20:46.862Z,9.24
2022-09-07T00:23:20.832Z,9.22
2022-09-07T00:25:54.224Z,9.22
2022-09-07T00:28:26.941Z,9.18
2022-09-07T00:30:59.656Z,9.18
2022-09-07T00:33:32.391Z,9.17
2022-09-07T00:36:05.397Z,9.08
2022-09-07T00:38:39.328Z,9.17
2022-09-07T00:41:12.946Z,9.17
2022-09-07T00:43:47.828Z,9.16
2022-09-07T00:46:22.797Z,9.10
2022-09-07T00:49:00.797Z,9.14
2022-09-07T00:51:37.408Z,9.07
2022-09-07T00:54:17.422Z,9.08
2022-09-07T00:56:53.060Z,9.11
2022-09-07T00:59:30.848Z,9.07
2022-09-07T01:02:04.117Z,9.10
2022-09-07T01:04:37.541Z,9.08
2022-09-07T01:07:10.192Z,9.06
2022-09-07T01:09:47.389Z,9.05
2022-09-07T01:12:20.324Z,9.02
2022-09-07T01:14:54.353Z,9.03
2022-09-07T01:17:36.899Z,9.04
2022-09-07T01:20:36.053Z,8.99
2022-09-07T01:23:37.204Z,9.01
2022-09-07T01:26:34.373Z,9.00
2022-09-07T01:29:16.934Z,8.92
2022-09-07T01:32:02.327Z,8.94
2022-09-07T01:34:34.897Z,8.94
2022-09-07T01:37:16.862Z,8.91
2022-09-07T01:40:01.168Z,8.90
2022-09-07T01:42:44.978Z,8.90
2022-09-07T01:45:23.880Z,8.89
2022-09-07T01:47:59.580Z,8.87
2022-09-07T01:50:37.153Z,8.88
2022-09-07T01:53:15.651Z,8.86
2022-09-07T01:55:54.513Z,8.86
2022-09-07T01:58:33.491Z,8.82
2022-09-07T02:01:11.397Z,8.85
2022-09-07T02:03:47.872Z,8.86
2022-09-07T02:06:27.929Z,8.75
2022-09-07T02:09:05.089Z,8.85
2022-09-07T02:11:40.556Z,8.82
2022-09-07T02:14:20.209Z,8.80
2022-09-07T02:16:59.461Z,8.77
2022-09-07T02:19:38.228Z,8.77
2022-09-07T02:22:14.878Z,8.73
2022-09-07T02:24:52.718Z,8.75
2022-09-07T02:27:30.591Z,8.74
2022-09-07T02:30:05.001Z,8.72
2022-09-07T02:32:39.137Z,8.69
2022-09-07T02:35:12.151Z,8.67
2022-09-07T02:37:45.733Z,8.68
2022-09-07T02:40:18.631Z,8.69
2022-09-07T02:42:52.005Z,8.68
2022-09-07T02:45:24.684Z,8.69
2022-09-07T02:48:16.741Z,8.68
2022-09-07T02:51:10.469Z,8.68
2022-09-07T02:54:06.498Z,8.65
2022-09-07T02:56:51.726Z,8.66
2022-09-07T02:59:40.417Z,8.66
2022-09-07T03:02:22.293Z,8.67
2022-09-07T03:05:02.614Z,8.68
2022-09-07T03:07:44.326Z,8.66
2022-09-07T03:10:18.129Z,8.67
2022-09-07T03:12:51.438Z,8.67
2022-09-07T03:15:25.876Z,8.65
2022-09-07T03:17:58.538Z,8.64
2022-09-07T03:20:32.527Z,8.66
2022-09-07T03:23:05.209Z,8.67
2022-09-07T03:25:38.052Z,8.69
2022-09-07T03:28:10.543Z,8.71
2022-09-07T03:30:52.710Z,8.74
2022-09-07T03:33:25.563Z,8.76
2022-09-07T03:36:02.581Z,8.76
2022-09-07T03:38:35.196Z,8.77
2022-09-07T03:41:08.138Z,8.77
2022-09-07T03:43:40.999Z,8.82
2022-09-07T03:46:16.265Z,8.73
2022-09-07T03:48:50.284Z,8.81
2022-09-07T03:51:24.351Z,8.79
2022-09-07T03:53:57.556Z,8.85
2022-09-07T03:56:30.353Z,8.87
2022-09-07T03:59:03.019Z,8.87
2022-09-07T04:01:35.721Z,8.88
2022-09-07T04:04:09.056Z,8.88
2022-09-07T04:06:43.579Z,8.88
2022-09-07T04:09:16.158Z,8.90
2022-09-07T04:11:48.943Z,8.88
2022-09-07T04:14:21.677Z,8.93
2022-09-07T04:16:54.509Z,8.95
2022-09-07T04:19:27.153Z,8.99
2022-09-07T04:22:01.097Z,9.02
2022-09-07T04:24:33.895Z,9.05
2022-09-07T04:27:06.652Z,9.10
2022-09-07T04:29:39.164Z,9.16
2022-09-07T04:32:15.629Z,9.23
2022-09-07T04:34:48.974Z,9.26
2022-09-07T04:37:22.980Z,9.30
2022-09-07T04:39:55.615Z,9.38
2022-09-07T04:42:28.171Z,9.42
2022-09-07T04:45:00.751Z,9.47
2022-09-07T04:47:33.575Z,9.49
2022-09-07T04:50:07.132Z,9.54
2022-09-07T04:52:41.193Z,9.59
2022-09-07T04:55:13.897Z,9.64
2022-09-07T04:57:49.992Z,9.68
2022-09-07T05:00:22.570Z,9.72
2022-09-07T05:02:55.203Z,9.77
2022-09-07T05:05:27.880Z,9.83
2022-09-07T05:08:02.393Z,9.87
2022-09-07T05:10:35.011Z,9.93
2022-09-07T05:13:07.603Z,9.97
2022-09-07T05:15:40.403Z,10.03
2022-09-07T05:18:18.184Z,10.04
2022-09-07T05:20:50.800Z,10.03
2022-09-07T05:23:24.761Z,10.06
2022-09-07T05:25:57.649Z,10.06
2022-09-07T05:28:30.425Z,10.09
2022-09-07T05:31:22.988Z,10.12
2022-09-07T05:36:52.782Z,10.18
2022-09-07T05:39:27.092Z,10.23
2022-09-07T05:41:59.853Z,10.26
2022-09-07T05:44:47.828Z,10.30
2022-09-07T05:47:20.502Z,10.36
2022-09-07T05:49:57.094Z,10.41
2022-09-07T05:52:29.988Z,10.48
2022-09-07T05:55:28.234Z,10.50
2022-09-07T05:57:57.421Z,10.54
2022-09-07T06:00:30.096Z,10.63
2022-09-07T06:03:02.937Z,10.65
2022-09-07T06:05:35.604Z,10.63
2022-09-07T06:08:08.309Z,10.74
2022-09-07T06:13:19.908Z,10.80
2022-09-07T06:15:52.513Z,10.84
2022-09-07T06:18:28.652Z,10.88
2022-09-07T06:21:03.779Z,10.89
2022-09-07T06:23:38.347Z,10.95
2022-09-07T06:26:13.236Z,11.00
2022-09-07T06:28:49.446Z,11.05
2022-09-07T06:31:24.796Z,11.15
2022-09-07T06:33:57.605Z,11.28
2022-09-07T06:36:30.387Z,11.35
2022-09-07T06:39:03.004Z,11.49
2022-09-07T06:44:35.033Z,11.60
2022-09-07T06:47:07.589Z,11.61
2022-09-07T06:49:40.191Z,11.62
2022-09-07T06:52:12.976Z,11.62
2022-09-07T06:55:01.210Z,11.67
2022-09-07T06:57:37.647Z,11.70
2022-09-07T07:00:11.567Z,11.73
2022-09-07T07:02:44.243Z,11.74
2022-09-07T07:05:16.988Z,11.76
2022-09-07T07:07:49.511Z,11.75
2022-09-07T07:10:24.799Z,11.78
2022-09-07T07:12:59.273Z,11.81
2022-09-07T07:15:31.858Z,11.88
2022-09-07T07:18:19.927Z,11.97
2022-09-07T07:20:53.932Z,12.05
2022-09-07T07:23:26.584Z,12.12
2022-09-07T07:26:02.044Z,12.17
2022-09-07T07:31:29.884Z,12.35
2022-09-07T07:34:04.001Z,12.40
2022-09-07T07:36:37.893Z,12.44
2022-09-07T07:42:05.572Z,12.52
2022-09-07T07:44:40.344Z,12.57
2022-09-07T07:47:12.749Z,12.63
2022-09-07T07:49:45.382Z,12.69
2022-09-07T07:58:03.291Z,12.90
2022-09-07T08:00:51.011Z,12.92
2022-09-07T08:03:26.248Z,13.02
2022-09-07T08:06:08.170Z,13.08
2022-09-07T08:08:41.476Z,13.16
2022-09-07T08:11:17.015Z,13.21
2022-09-07T08:13:51.119Z,13.31
2022-09-07T08:16:25.233Z,13.35
2022-09-07T08:18:58.174Z,13.41
2022-09-07T08:21:30.746Z,13.46
2022-09-07T08:24:03.941Z,13.48
2022-09-07T08:26:36.482Z,13.43
2022-09-07T08:29:08.868Z,13.40
2022-09-07T08:31:42.934Z,13.34
2022-09-07T08:34:15.873Z,13.27
2022-09-07T08:36:48.442Z,13.20
2022-09-07T08:39:21.091Z,13.13
2022-09-07T08:42:26.501Z,13.05
2022-09-07T08:45:03.362Z,13.08
2022-09-07T08:47:41.853Z,13.08
2022-09-07T08:50:21.450Z,13.07
2022-09-07T08:52:59.269Z,13.05
2022-09-07T08:55:36.585Z,13.03
2022-09-07T08:58:32.614Z,13.01
2022-09-07T09:04:17.836Z,12.94
2022-09-07T09:07:05.452Z,12.94
2022-09-07T09:10:00.696Z,12.95
2022-09-07T09:12:46.650Z,12.97
2022-09-07T09:15:22.108Z,13.01
2022-09-07T09:18:02.919Z,13.08
2022-09-07T09:20:54.390Z,13.14
2022-09-07T09:23:28.333Z,13.25
2022-09-07T09:26:07.525Z,13.31
2022-09-07T09:28:40.444Z,13.30
2022-09-07T09:31:18.560Z,13.36
2022-09-07T09:34:11.283Z,13.40
2022-09-07T09:36:47.736Z,13.42
2022-09-07T09:39:32.700Z,13.45
2022-09-07T09:42:16.487Z,13.50
2022-09-07T09:44:49.067Z,13.47
2022-09-07T09:47:30.208Z,13.55
2022-09-07T09:50:08.021Z,13.55
2022-09-07T09:52:51.707Z,13.51
2022-09-07T09:55:36.307Z,13.42
2022-09-07T10:01:27.097Z,13.22
2022-09-07T10:04:20.304Z,13.13
2022-09-07T10:06:56.320Z,13.14
2022-09-07T10:09:38.140Z,13.12
2022-09-07T10:12:25.828Z,13.16
2022-09-07T10:15:00.276Z,13.16
2022-09-07T10:17:34.884Z,13.19
2022-09-07T10:20:31.586Z,13.19
2022-09-07T10:23:05.169Z,13.18
2022-09-07T10:25:40.830Z,13.18
2022-09-07T10:28:18.554Z,13.19
2022-09-07T10:31:04.217Z,13.22
2022-09-07T10:34:25.777Z,13.25
2022-09-07T10:36:46.390Z,13.26
2022-09-07T10:39:25.116Z,13.24
2022-09-07T10:42:05.575Z,13.29
2022-09-07T10:44:50.678Z,13.34
2022-09-07T10:47:35.743Z,13.36
2022-09-07T10:50:26.910Z,13.42
2022-09-07T10:53:39.428Z,13.43
2022-09-07T10:56:11.254Z,13.42
2022-09-07T10:59:02.225Z,13.42
2022-09-07T11:01:50.365Z,13.39
2022-09-07T11:04:37.892Z,13.37
2022-09-07T11:07:25.360Z,13.36
2022-09-07T11:10:01.778Z,13.32
2022-09-07T11:12:37.837Z,13.30
2022-09-07T11:15:19.670Z,13.25
2022-09-07T11:17:57.173Z,13.13
2022-09-07T11:20:35.854Z,13.16
2022-09-07T11:23:18.389Z,13.07
2022-09-07T11:26:00.246Z,13.04
2022-09-07T11:28:44.760Z,12.97
2022-09-07T11:31:25.097Z,12.90
2022-09-07T11:37:01.467Z,12.83
2022-09-07T11:39:39.748Z,12.82
2022-09-07T11:45:17.640Z,12.80
2022-09-07T11:47:56.387Z,12.80
2022-09-07T11:50:33.389Z,12.79
2022-09-07T11:53:09.061Z,12.78
2022-09-07T11:55:45.915Z,12.76
2022-09-07T11:58:48.651Z,12.75
2022-09-07T12:01:30.657Z,12.73
2022-09-07T12:04:25.098Z,12.72
2022-09-07T12:07:14.629Z,12.71
2022-09-07T12:10:04.956Z,12.70
2022-09-07T12:12:53.703Z,12.69
2022-09-07T12:15:33.582Z,12.62
2022-09-07T12:18:19.332Z,12.64
2022-09-07T12:20:53.304Z,12.61
2022-09-07T12:23:29.362Z,12.62
2022-09-07T12:26:47.630Z,12.64
2022-09-07T12:29:23.999Z,12.64
2022-09-07T12:31:59.858Z,12.62
2022-09-07T12:34:50.825Z,12.59
2022-09-07T12:37:43.853Z,12.59
2022-09-07T12:40:48.548Z,12.58
2022-09-07T12:43:51.748Z,12.59
2022-09-07T12:46:46.803Z,12.58
2022-09-07T12:49:40.932Z,12.54
2022-09-07T12:52:33.174Z,12.60
2022-09-07T12:55:29.159Z,12.61
2022-09-07T12:58:18.996Z,12.62
2022-09-07T13:01:05.582Z,12.61
2022-09-07T13:03:59.876Z,12.59
2022-09-07T13:07:02.397Z,12.58
2022-09-07T13:09:36.613Z,12.55
2022-09-07T13:15:41.287Z,12.50
2022-09-07T13:18:39.745Z,12.53
2022-09-07T13:21:35.429Z,12.54
2022-09-07T13:24:53.498Z,12.55
2022-09-07T13:27:44.801Z,12.54
2022-09-07T13:30:26.280Z,12.55
2022-09-07T13:33:40.340Z,12.53
2022-09-07T13:36:26.788Z,12.52
2022-09-07T13:38:59.694Z,12.52
2022-09-07T13:41:36.440Z,12.49
2022-09-07T13:44:23.685Z,12.47
2022-09-07T13:47:07.615Z,12.52
2022-09-07T13:49:55.547Z,12.50
2022-09-07T13:52:42.581Z,12.50
2022-09-07T13:55:27.918Z,12.47
2022-09-07T13:58:14.643Z,12.48
2022-09-07T14:00:53.874Z,12.42
2022-09-07T14:03:28.435Z,12.45
2022-09-07T14:06:32.711Z,12.47
2022-09-07T14:09:13.595Z,12.46
2022-09-07T14:11:47.997Z,12.42
2022-09-07T14:14:22.858Z,12.40
2022-09-07T14:17:02.881Z,12.39
2022-09-07T14:19:41.570Z,12.34
2022-09-07T14:22:16.665Z,12.40
2022-09-07T14:24:51.068Z,12.38
2022-09-07T14:27:25.330Z,12.37
2022-09-07T14:30:17.017Z,12.35
2022-09-07T14:32:53.129Z,12.34
2022-09-07T14:35:28.582Z,12.29
2022-09-07T14:38:07.030Z,12.27
2022-09-07T14:40:39.674Z,12.26
2022-09-07T14:43:28.357Z,12.22
2022-09-07T14:46:15.952Z,12.19
2022-09-07T14:48:51.997Z,12.14
2022-09-07T14:51:35.092Z,12.09
2022-09-07T14:54:15.738Z,12.07
2022-09-07T14:57:06.068Z,12.07
2022-09-07T14:59:41.617Z,12.06
2022-09-07T15:02:36.099Z,12.06
2022-09-07T15:05:34.445Z,12.06
2022-09-07T15:08:18.818Z,12.06
2022-09-07T15:13:57.173Z,12.05
2022-09-07T15:16:31.435Z,12.02
2022-09-07T15:19:22.391Z,11.96
2022-09-07T15:21:56.288Z,11.96
2022-09-07T15:24:28.701Z,11.91
2022-09-07T15:27:02.676Z,11.92
2022-09-07T15:29:35.543Z,11.91
2022-09-07T15:32:10.154Z,11.84
2022-09-07T15:34:43.919Z,11.89
2022-09-07T15:40:16.882Z,11.85
2022-09-07T15:43:16.441Z,11.82
2022-09-07T15:45:42.089Z,11.80
2022-09-07T15:48:15.693Z,11.79
2022-09-07T15:50:48.946Z,11.78
2022-09-07T15:56:15.379Z,11.75
2022-09-07T15:58:52.406Z,11.76
2022-09-07T16:04:17.491Z,11.79
2022-09-07T16:06:50.072Z,11.81
2022-09-07T16:09:24.125Z,11.82
2022-09-07T16:11:57.127Z,11.82
2022-09-07T16:14:56.204Z,11.81
2022-09-07T16:17:35.715Z,11.81
2022-09-07T16:20:10.598Z,11.80
2022-09-07T16:25:38.042Z,11.80
2022-09-07T16:28:14.533Z,11.76
2022-09-07T16:30:48.165Z,11.78
2022-09-07T16:33:21.096Z,11.79
2022-09-07T16:35:59.497Z,11.78
2022-09-07T16:38:47.767Z,11.74
2022-09-07T16:41:23.470Z,11.76
2022-09-07T16:43:56.899Z,11.76
2022-09-07T16:46:35.432Z,11.75
2022-09-07T16:49:08.281Z,11.74
2022-09-07T16:51:41.072Z,11.72
2022-09-07T16:54:14.532Z,11.73
2022-09-07T16:56:48.536Z,11.71
2022-09-07T16:59:26.417Z,11.72
2022-09-07T17:01:59.301Z,11.72
2022-09-07T17:04:32.701Z,11.71
2022-09-07T17:07:05.308Z,11.69
2022-09-07T17:09:38.443Z,11.72
2022-09-07T17:12:13.001Z,11.69
2022-09-07T17:14:45.744Z,11.73
2022-09-07T17:17:20.185Z,11.74
2022-09-07T17:19:53.229Z,11.69
2022-09-07T17:22:26.622Z,11.70
2022-09-07T17:24:59.362Z,11.71
2022-09-07T17:27:33.333Z,11.71
2022-09-07T17:30:06.929Z,11.70
2022-09-07T17:32:40.080Z,11.71
2022-09-07T17:35:13.226Z,11.72
2022-09-07T17:37:45.861Z,11.73
2022-09-07T17:40:19.449Z,11.73
2022-09-07T17:45:46.652Z,11.64
2022-09-07T17:48:19.177Z,11.75
2022-09-07T17:51:00.727Z,11.75
2022-09-07T17:53:34.608Z,11.70
2022-09-07T17:56:08.675Z,11.70
2022-09-07T17:58:44.655Z,11.70
2022-09-07T18:01:19.215Z,11.72
2022-09-07T18:03:52.642Z,11.70
2022-09-07T18:06:26.243Z,11.68
2022-09-07T18:09:00.150Z,11.67
2022-09-07T18:11:49.856Z,11.66
2022-09-07T18:14:24.919Z,11.65
2022-09-07T18:16:58.050Z,11.67
2022-09-07T18:19:30.756Z,11.67
2022-09-07T18:22:04.231Z,11.58
2022-09-07T18:24:37.266Z,11.62
2022-09-07T18:27:10.432Z,11.61
2022-09-07T18:29:44.581Z,11.61
2022-09-07T18:32:17.771Z,11.60
2022-09-07T18:34:50.946Z,11.58
2022-09-07T18:37:24.213Z,11.55
2022-09-07T18:39:57.025Z,11.56
2022-09-07T18:42:30.591Z,11.57
2022-09-07T18:47:59.876Z,11.56
2022-09-07T18:50:34.514Z,11.55
2022-09-07T18:53:16.430Z,11.55
2022-09-07T18:55:50.725Z,11.54
2022-09-07T18:58:24.426Z,11.53
2022-09-07T19:01:03.736Z,11.50
2022-09-07T19:03:36.585Z,11.50
2022-09-07T19:06:13.239Z,11.51
2022-09-07T19:08:46.842Z,11.50
2022-09-07T19:11:22.179Z,11.51
2022-09-07T19:13:58.855Z,11.50
2022-09-07T19:16:33.710Z,11.49
2022-09-07T19:19:07.654Z,11.52
2022-09-07T19:21:42.847Z,11.48
2022-09-07T19:24:17.121Z,11.51
2022-09-07T19:26:50.668Z,11.51
2022-09-07T19:29:23.991Z,11.43
2022-09-07T19:32:12.014Z,11.51
2022-09-07T19:34:45.809Z,11.49
2022-09-07T19:37:18.584Z,11.49
2022-09-07T19:39:51.936Z,11.49
2022-09-07T19:42:25.383Z,11.50
2022-09-07T19:44:58.075Z,11.48
2022-09-07T19:47:32.189Z,11.44
2022-09-07T19:50:05.583Z,11.46
2022-09-07T19:52:38.009Z,11.45
2022-09-07T19:55:10.623Z,11.46
2022-09-07T19:57:46.822Z,11.45
2022-09-07T20:00:19.641Z,11.43
2022-09-07T20:02:54.338Z,11.43
2022-09-07T20:05:29.701Z,11.44
2022-09-07T20:08:03.251Z,11.43
2022-09-07T20:10:36.372Z,11.43
2022-09-07T20:13:08.790Z,11.40
2022-09-07T20:15:42.677Z,11.43
2022-09-07T20:18:16.588Z,11.43
2022-09-07T20:20:49.162Z,11.44
2022-09-07T20:23:21.962Z,11.44
2022-09-07T20:25:57.845Z,11.45
2022-09-07T20:28:31.304Z,11.43
2022-09-07T20:31:08.207Z,11.43
2022-09-07T20:33:43.397Z,11.42
2022-09-07T20:36:18.400Z,11.41
2022-09-07T20:38:52.957Z,11.41
2022-09-07T20:41:30.069Z,11.42
2022-09-07T20:44:04.292Z,11.41
2022-09-07T20:46:36.957Z,11.41
2022-09-07T20:49:10.981Z,11.41
2022-09-07T20:51:43.696Z,11.39
2022-09-07T20:54:16.073Z,11.36
2022-09-07T20:56:48.494Z,11.34
2022-09-07T20:59:21.322Z,11.35
2022-09-07T21:01:53.865Z,11.34
2022-09-07T21:04:27.718Z,11.35
2022-09-07T21:07:00.660Z,11.35
2022-09-07T21:09:34.436Z,11.32
2022-09-07T21:12:07.171Z,11.32
2022-09-07T21:14:40.294Z,11.32
2022-09-07T21:17:12.721Z,11.31
2022-09-07T21:19:46.606Z,11.30
2022-09-07T21:22:19.475Z,11.30
2022-09-07T21:24:51.839Z,11.28
2022-09-07T21:27:24.525Z,11.27
2022-09-07T21:29:57.086Z,11.28
2022-09-07T21:32:29.565Z,11.27
2022-09-07T21:35:03.426Z,11.30
2022-09-07T21:37:35.971Z,11.28
2022-09-07T21:40:09.471Z,11.28
2022-09-07T21:42:42.822Z,11.28
2022-09-07T21:45:15.291Z,11.29
2022-09-07T21:47:47.716Z,11.30
2022-09-07T21:50:21.607Z,11.30
2022-09-07T21:52:54.092Z,11.29
2022-09-07T21:55:26.720Z,11.28
2022-09-07T21:57:59.157Z,11.28
2022-09-07T22:00:31.778Z,11.28
2022-09-07T22:03:04.846Z,11.28
2022-09-07T22:05:38.637Z,11.26
2022-09-07T22:08:11.156Z,11.15
2022-09-07T22:10:44.780Z,11.25
2022-09-07T22:13:17.286Z,11.23
2022-09-07T22:15:49.712Z,11.22
2022-09-07T22:18:22.154Z,11.20
2022-09-07T22:21:04.337Z,11.21
2022-09-07T22:23:38.711Z,11.20
2022-09-07T22:26:12.071Z,11.20
2022-09-07T22:28:44.625Z,11.19
2022-09-07T22:31:19.350Z,11.18
2022-09-07T22:33:53.429Z,11.18
2022-09-07T22:36:28.833Z,11.18
2022-09-07T22:39:04.401Z,11.15
2022-09-07T22:41:38.778Z,11.18
2022-09-07T22:44:13.049Z,11.16
2022-09-07T22:46:46.736Z,11.14
2022-09-07T22:49:19.347Z,11.12
2022-09-07T22:51:53.301Z,11.12
2022-09-07T22:54:25.783Z,11.12
2022-09-07T22:56:58.165Z,11.12
2022-09-07T22:59:31.150Z,11.12
2022-09-07T23:02:03.722Z,11.10
2022-09-07T23:04:36.347Z,11.12
2022-09-07T23:07:10.258Z,11.10
2022-09-07T23:09:45.180Z,11.09
2022-09-07T23:12:17.667Z,11.09
2022-09-07T23:14:50.213Z,11.09
2022-09-07T23:17:22.584Z,11.09
2022-09-07T23:19:54.914Z,11.08
2022-09-07T23:22:29.094Z,11.08
2022-09-07T23:25:01.817Z,11.08
2022-09-07T23:27:36.799Z,11.08
2022-09-07T23:30:10.509Z,11.09
2022-09-07T23:32:43.021Z,11.10
2022-09-07T23:35:16.738Z,11.05
2022-09-07T23:37:50.644Z,11.10
2022-09-07T23:40:23.163Z,11.10
2022-09-07T23:42:55.572Z,11.10
2022-09-07T23:45:28.156Z,11.11
2022-09-07T23:48:00.519Z,11.10
2022-09-07T23:50:33.875Z,11.10
2022-09-07T23:53:07.810Z,11.08
2022-09-07T23:55:41.038Z,11.10
2022-09-07T23:58:13.472Z,11.09
